Time;durP1;ratioP1;P1;durP2;ratioP2;P2;SDS_P1;SDS_P2;PMS_P1;PMS_P2;Temp;Humidity;BMP_temperature;BMP_pressure;BME280_temperature;BME280_humidity;BME280_pressure;Samples;Min_cycle;Max_cycle;Signal;HPM_P1;HPM_P2
2023/12/04 00:00:37;;;;;;;4.82;2.05;;;4.60;99.90;;;;;;5003618;28;20714;-21
2023/12/04 00:03:06;;;;;;;5.50;2.30;;;4.60;99.90;;;;;;5029325;28;20259;-18
2023/12/04 00:05:32;;;;;;;6.25;2.60;;;4.60;99.90;;;;;;5022832;28;20033;-21
2023/12/04 00:07:58;;;;;;;5.03;2.17;;;4.60;99.90;;;;;;4978631;28;20044;-21
2023/12/04 00:10:24;;;;;;;5.93;2.20;;;4.60;99.90;;;;;;5006719;28;20024;-21
2023/12/04 00:12:49;;;;;;;6.50;2.33;;;4.60;99.90;;;;;;5027069;28;20025;-21
2023/12/04 00:15:17;;;;;;;5.80;2.37;;;4.10;99.90;;;;;;5019896;28;20030;-21
2023/12/04 00:17:43;;;;;;;5.45;2.10;;;4.60;99.90;;;;;;5014482;28;20033;-21
2023/12/04 00:20:09;;;;;;;4.85;1.92;;;4.60;99.90;;;;;;5019804;28;20748;-21
2023/12/04 00:22:36;;;;;;;4.80;1.93;;;4.60;99.90;;;;;;5005846;28;20021;-21
2023/12/04 00:25:03;;;;;;;3.70;1.85;;;4.70;99.90;;;;;;5016979;28;20370;-21
2023/12/04 00:27:29;;;;;;;5.03;1.90;;;4.70;99.90;;;;;;5006331;28;20068;-21
2023/12/04 00:29:55;;;;;;;4.60;2.17;;;4.70;99.90;;;;;;5013231;28;20287;-21
2023/12/04 00:32:21;;;;;;;5.13;2.10;;;4.70;99.90;;;;;;5006465;28;20036;-21
2023/12/04 00:34:47;;;;;;;4.70;2.00;;;4.70;99.90;;;;;;5028630;28;20036;-21
2023/12/04 00:37:13;;;;;;;5.17;2.10;;;4.60;99.90;;;;;;5000979;28;20770;-21
2023/12/04 00:39:38;;;;;;;5.03;1.98;;;4.60;99.90;;;;;;5019040;28;20430;-21
2023/12/04 00:42:05;;;;;;;4.23;2.03;;;4.60;99.90;;;;;;5000293;28;20033;-21
2023/12/04 00:44:31;;;;;;;5.47;2.15;;;4.60;99.90;;;;;;5019391;28;20691;-21
2023/12/04 00:46:57;;;;;;;4.63;1.80;;;4.60;99.90;;;;;;5024367;28;20026;-21
2023/12/04 00:49:23;;;;;;;5.05;1.83;;;4.60;99.90;;;;;;5015664;28;20033;-21
2023/12/04 00:51:49;;;;;;;4.33;1.70;;;4.60;99.90;;;;;;5014928;28;20029;-21
2023/12/04 00:54:15;;;;;;;4.03;1.80;;;4.60;99.90;;;;;;5012798;28;20036;-21
2023/12/04 00:56:41;;;;;;;4.65;1.60;;;4.00;99.90;;;;;;5019710;28;20416;-21
2023/12/04 00:59:10;;;;;;;4.90;1.80;;;4.50;99.90;;;;;;5002123;28;20483;-21
2023/12/04 01:01:39;;;;;;;4.10;1.90;;;4.60;99.90;;;;;;5013685;28;20525;-21
2023/12/04 01:04:04;;;;;;;3.80;1.42;;;4.50;99.90;;;;;;5011726;28;20677;-21
2023/12/04 01:06:30;;;;;;;5.20;1.90;;;3.30;99.90;;;;;;5024844;28;20052;-21
2023/12/04 01:08:56;;;;;;;4.33;1.90;;;4.50;99.90;;;;;;5009429;28;20057;-21
2023/12/04 01:11:23;;;;;;;3.08;1.55;;;4.50;99.90;;;;;;5017616;28;20529;-21
2023/12/04 01:13:49;;;;;;;5.40;1.90;;;7.50;99.90;;;;;;4986008;28;20044;-21
2023/12/04 01:16:15;;;;;;;3.60;1.40;;;4.50;99.90;;;;;;5002227;28;20630;-21
2023/12/04 01:18:42;;;;;;;4.90;2.00;;;4.60;99.90;;;;;;5027660;28;20502;-21
2023/12/04 01:21:08;;;;;;;4.57;1.90;;;4.60;99.90;;;;;;4984581;28;20336;-22
2023/12/04 01:23:35;;;;;;;3.85;1.73;;;4.50;99.90;;;;;;5002377;28;20025;-22
2023/12/04 01:26:01;;;;;;;4.68;1.98;;;4.50;99.90;;;;;;5000717;28;20951;-22
2023/12/04 01:28:27;;;;;;;5.00;2.15;;;4.50;99.90;;;;;;5014825;28;20060;-22
2023/12/04 01:30:52;;;;;;;4.13;2.00;;;4.50;99.90;;;;;;4987648;28;20187;-21
2023/12/04 01:33:18;;;;;;;4.63;1.90;;;4.50;99.90;;;;;;5003965;28;20460;-22
2023/12/04 01:35:44;;;;;;;3.60;1.83;;;4.50;99.90;;;;;;5019983;28;20025;-21
2023/12/04 01:38:09;;;;;;;4.60;1.63;;;4.50;99.90;;;;;;4996239;28;20017;-22
2023/12/04 01:40:35;;;;;;;4.67;1.83;;;4.50;99.90;;;;;;5018766;28;20033;-21
2023/12/04 01:43:01;;;;;;;4.55;1.80;;;4.50;99.90;;;;;;5022132;28;20303;-22
2023/12/04 01:45:27;;;;;;;4.60;1.80;;;4.50;99.90;;;;;;4983743;28;20036;-22
2023/12/04 01:47:53;;;;;;;3.60;1.58;;;4.50;99.90;;;;;;5012738;28;20717;-21
2023/12/04 01:50:20;;;;;;;4.57;1.60;;;4.60;99.90;;;;;;5015968;28;20494;-22
2023/12/04 01:52:46;;;;;;;4.70;1.77;;;4.50;99.90;;;;;;5012362;28;20053;-21
2023/12/04 01:55:13;;;;;;;4.47;1.88;;;4.50;99.90;;;;;;5022359;28;20099;-19
2023/12/04 01:57:39;;;;;;;4.65;2.05;;;4.50;99.90;;;;;;4983327;28;20144;-20
2023/12/04 02:00:11;;;;;;;4.35;1.90;;;4.50;99.90;;;;;;5022896;28;20107;-19
2023/12/04 02:02:38;;;;;;;5.22;2.20;;;4.10;99.90;;;;;;5005735;28;20032;-19
2023/12/04 02:05:07;;;;;;;5.17;2.20;;;4.50;99.90;;;;;;5014460;28;20222;-19
2023/12/04 02:07:33;;;;;;;4.57;1.67;;;4.60;99.90;;;;;;5015191;28;20040;-19
2023/12/04 02:09:58;;;;;;;4.30;1.80;;;4.60;99.90;;;;;;4999772;28;20108;-20
2023/12/04 02:12:24;;;;;;;3.30;1.40;;;4.50;99.90;;;;;;5014957;28;20379;-20
2023/12/04 02:14:51;;;;;;;5.20;1.80;;;4.60;99.90;;;;;;5020590;28;20498;-20
2023/12/04 02:17:18;;;;;;;4.65;1.52;;;4.60;99.90;;;;;;4986631;28;20119;-19
2023/12/04 02:19:44;;;;;;;4.05;1.73;;;4.50;99.90;;;;;;4990693;28;20033;-20
2023/12/04 02:22:10;;;;;;;4.68;1.90;;;4.60;99.90;;;;;;4984143;28;20736;-19
2023/12/04 02:24:36;;;;;;;4.93;1.90;;;4.50;99.90;;;;;;5026180;28;20027;-20
2023/12/04 02:27:15;;;;;;;3.78;1.60;;;4.60;99.90;;;;;;4999880;28;20282;-20
2023/12/04 02:29:51;;;;;;;4.47;1.60;;;4.60;99.90;;;;;;5009560;28;20048;-20
2023/12/04 02:32:19;;;;;;;4.17;1.70;;;4.60;99.90;;;;;;5005969;28;20037;-19
2023/12/04 02:34:47;;;;;;;3.15;1.50;;;4.60;99.90;;;;;;4989561;28;20359;-20
2023/12/04 02:37:14;;;;;;;3.33;1.60;;;4.60;99.90;;;;;;5023331;28;20021;-19
2023/12/04 02:39:40;;;;;;;3.95;1.50;;;4.60;99.90;;;;;;5013278;28;20537;-20
2023/12/04 02:42:06;;;;;;;3.97;1.83;;;4.60;99.90;;;;;;5019780;28;20022;-19
2023/12/04 02:44:32;;;;;;;3.60;1.73;;;4.60;99.90;;;;;;4999067;28;20503;-20
2023/12/04 02:46:58;;;;;;;3.35;1.52;;;4.60;99.90;;;;;;5026696;28;20163;-19
2023/12/04 02:49:23;;;;;;;2.73;1.30;;;4.60;99.90;;;;;;5002445;28;20594;-20
2023/12/04 02:51:49;;;;;;;3.67;1.60;;;6.20;99.90;;;;;;4977496;28;20215;-20
2023/12/04 02:54:15;;;;;;;4.60;1.70;;;4.60;99.90;;;;;;5010056;28;20041;-20
2023/12/04 02:56:41;;;;;;;2.85;1.40;;;3.60;99.90;;;;;;5015263;28;20029;-20
2023/12/04 02:59:06;;;;;;;3.50;1.70;;;4.50;99.90;;;;;;4998273;28;20037;-19
2023/12/04 03:01:32;;;;;;;4.10;1.73;;;4.60;99.90;;;;;;5026779;28;20397;-20
2023/12/04 03:03:58;;;;;;;4.70;1.90;;;4.60;99.90;;;;;;4998527;28;20112;-20
2023/12/04 03:06:23;;;;;;;3.63;1.83;;;4.60;99.90;;;;;;4987043;28;20022;-22
2023/12/04 03:08:49;;;;;;;3.43;1.70;;;4.70;99.90;;;;;;5021625;28;20120;-22
2023/12/04 03:11:15;;;;;;;5.38;2.28;;;4.60;99.90;;;;;;4998929;28;20032;-22
2023/12/04 03:13:40;;;;;;;4.57;1.57;;;4.70;99.90;;;;;;5011466;28;20112;-22
2023/12/04 03:16:14;;;;;;;3.28;1.70;;;4.60;99.90;;;;;;5017704;28;20021;-22
2023/12/04 03:18:40;;;;;;;3.97;1.70;;;4.60;99.90;;;;;;4992701;28;20536;-22
2023/12/04 03:21:06;;;;;;;4.57;1.90;;;4.60;99.90;;;;;;5016492;28;20053;-22
2023/12/04 03:23:32;;;;;;;3.78;1.63;;;4.70;99.90;;;;;;5033013;28;20054;-22
2023/12/04 03:25:58;;;;;;;5.37;2.40;;;4.70;99.90;;;;;;5016217;28;20617;-22
2023/12/04 03:28:23;;;;;;;4.40;1.98;;;4.70;99.90;;;;;;5020241;28;20315;-22
2023/12/04 03:30:49;;;;;;;4.20;1.67;;;4.70;99.90;;;;;;4987086;28;20104;-23
2023/12/04 03:33:15;;;;;;;4.33;1.77;;;4.70;99.90;;;;;;5029270;28;20149;-22
2023/12/04 03:35:41;;;;;;;5.07;1.90;;;4.70;99.90;;;;;;4959895;28;20497;-22
2023/12/04 03:38:06;;;;;;;4.20;1.60;;;4.70;99.90;;;;;;5028039;28;20544;-22
2023/12/04 03:40:32;;;;;;;4.80;1.90;;;4.60;99.90;;;;;;5027405;28;20037;-22
2023/12/04 03:42:58;;;;;;;4.50;1.90;;;4.70;99.90;;;;;;5008172;28;20413;-22
2023/12/04 03:45:23;;;;;;;4.45;1.52;;;4.70;99.90;;;;;;5020797;28;20063;-22
2023/12/04 03:47:49;;;;;;;4.70;1.90;;;4.70;99.90;;;;;;5023572;28;20081;-22
2023/12/04 03:50:15;;;;;;;3.97;1.63;;;4.70;99.90;;;;;;5013170;28;20603;-22
2023/12/04 03:52:41;;;;;;;4.50;2.25;;;4.70;99.90;;;;;;4990882;28;20053;-22
2023/12/04 03:55:08;;;;;;;3.97;1.60;;;4.70;99.90;;;;;;4995635;28;20033;-22
2023/12/04 03:57:34;;;;;;;3.75;1.50;;;4.70;99.90;;;;;;5020842;28;20235;-22
2023/12/04 03:59:59;;;;;;;4.22;1.55;;;4.70;99.90;;;;;;5007244;28;20780;-22
2023/12/04 04:02:25;;;;;;;3.57;1.73;;;4.70;99.90;;;;;;5029609;28;21402;-22
2023/12/04 04:04:51;;;;;;;3.80;1.85;;;4.70;99.90;;;;;;4994253;28;20033;-22
2023/12/04 04:07:17;;;;;;;4.03;1.77;;;4.70;99.90;;;;;;4997124;28;20115;-22
2023/12/04 04:09:43;;;;;;;4.80;2.20;;;4.70;99.90;;;;;;5007307;28;20029;-22
2023/12/04 04:12:09;;;;;;;2.85;1.27;;;4.70;99.90;;;;;;5007708;28;20045;-22
2023/12/04 04:14:35;;;;;;;4.47;1.80;;;4.70;99.90;;;;;;5010021;28;20467;-19
2023/12/04 04:17:01;;;;;;;3.80;1.60;;;4.70;99.90;;;;;;5005160;28;20033;-21
2023/12/04 04:19:26;;;;;;;4.28;2.00;;;4.70;99.90;;;;;;5012733;28;20107;-20
2023/12/04 04:21:52;;;;;;;5.27;1.97;;;4.80;99.90;;;;;;5002130;28;20105;-21
2023/12/04 04:24:18;;;;;;;4.15;1.90;;;4.80;99.90;;;;;;5020749;28;20710;-20
2023/12/04 04:26:44;;;;;;;3.97;1.73;;;4.80;99.90;;;;;;5010828;28;20098;-20
2023/12/04 04:29:09;;;;;;;4.00;2.05;;;4.80;99.90;;;;;;5012072;28;20255;-20
2023/12/04 04:31:35;;;;;;;4.63;1.60;;;4.80;99.90;;;;;;5017895;28;20026;-20
2023/12/04 04:34:01;;;;;;;3.50;1.50;;;4.80;99.90;;;;;;5014662;28;20559;-21
2023/12/04 04:36:27;;;;;;;5.43;2.00;;;4.80;99.90;;;;;;5004706;28;20036;-19
2023/12/04 04:38:52;;;;;;;3.90;1.65;;;4.80;99.90;;;;;;5018382;28;20030;-21
2023/12/04 04:41:18;;;;;;;4.13;1.70;;;4.80;99.90;;;;;;5028218;28;20529;-20
2023/12/04 04:43:44;;;;;;;2.70;1.23;;;4.90;99.90;;;;;;5029865;28;20478;-20
2023/12/04 04:46:09;;;;;;;4.23;1.53;;;4.80;99.90;;;;;;4975226;28;21003;-22
2023/12/04 04:48:35;;;;;;;3.42;1.77;;;4.90;99.90;;;;;;5029016;28;20862;-22
2023/12/04 04:51:01;;;;;;;4.70;2.03;;;4.90;99.90;;;;;;5027932;28;20032;-22
2023/12/04 04:53:26;;;;;;;4.07;1.73;;;4.90;99.90;;;;;;4996104;28;20028;-22
2023/12/04 04:55:52;;;;;;;4.13;1.90;;;4.90;99.90;;;;;;5026477;28;20075;-21
2023/12/04 04:58:18;;;;;;;4.57;2.05;;;4.90;99.90;;;;;;5027158;28;20340;-20
2023/12/04 05:00:45;;;;;;;4.07;1.70;;;4.90;99.90;;;;;;5019280;28;20540;-20
2023/12/04 05:03:10;;;;;;;3.72;1.60;;;4.90;99.90;;;;;;5013365;28;20033;-19
2023/12/04 05:05:36;;;;;;;3.92;1.65;;;4.90;99.90;;;;;;5013493;28;20048;-19
2023/12/04 05:08:02;;;;;;;3.67;1.63;;;4.80;99.90;;;;;;4995671;28;20490;-21
2023/12/04 05:10:27;;;;;;;3.67;1.65;;;4.90;99.90;;;;;;5029038;28;20994;-20
2023/12/04 05:12:53;;;;;;;2.97;1.43;;;4.90;99.90;;;;;;5023172;28;20539;-21
2023/12/04 05:15:19;;;;;;;4.43;1.60;;;5.00;99.90;;;;;;5018293;28;20029;-19
2023/12/04 05:17:44;;;;;;;2.75;1.30;;;4.90;99.90;;;;;;5003114;28;20118;-19
2023/12/04 05:20:10;;;;;;;4.47;1.50;;;4.90;99.90;;;;;;5022589;28;20025;-20
2023/12/04 05:22:36;;;;;;;3.10;1.60;;;4.90;99.90;;;;;;5027517;28;20353;-19
2023/12/04 05:25:02;;;;;;;4.27;1.40;;;5.00;99.90;;;;;;4996916;28;20065;-22
2023/12/04 05:27:28;;;;;;;3.30;1.60;;;5.00;99.90;;;;;;5027499;28;20694;-20
2023/12/04 05:29:53;;;;;;;4.32;1.80;;;5.00;99.90;;;;;;4994722;28;20040;-20
2023/12/04 05:32:19;;;;;;;2.90;1.53;;;5.00;99.90;;;;;;5005985;28;20033;-20
2023/12/04 05:34:45;;;;;;;2.80;1.50;;;5.00;99.90;;;;;;5014278;28;20091;-19
2023/12/04 05:37:11;;;;;;;3.97;1.60;;;;;;;;;;5025677;28;20025;-20
2023/12/04 05:39:36;;;;;;;2.78;1.50;;;5.00;99.90;;;;;;5003711;28;20029;-19
2023/12/04 05:42:03;;;;;;;3.03;1.60;;;5.00;99.90;;;;;;4984033;28;20493;-21
2023/12/04 05:44:28;;;;;;;3.63;1.55;;;5.00;99.90;;;;;;5015054;28;20470;-20
2023/12/04 05:46:54;;;;;;;2.85;1.42;;;5.00;99.90;;;;;;4993014;28;20262;-20
2023/12/04 05:49:20;;;;;;;3.17;1.52;;;5.00;99.90;;;;;;5020315;28;20022;-19
2023/12/04 05:51:46;;;;;;;2.57;1.27;;;4.10;99.90;;;;;;5025938;28;20037;-20
2023/12/04 05:54:11;;;;;;;2.67;1.50;;;5.10;99.90;;;;;;4988010;28;20449;-20
2023/12/04 05:56:37;;;;;;;3.40;1.23;;;5.00;99.90;;;;;;5015691;28;20040;-20
2023/12/04 05:59:04;;;;;;;3.08;1.40;;;5.10;99.90;;;;;;5024894;28;20043;-19
2023/12/04 06:01:29;;;;;;;3.87;1.50;;;5.00;99.90;;;;;;4983546;28;20032;-20
2023/12/04 06:03:55;;;;;;;4.32;1.50;;;7.10;99.90;;;;;;5004413;28;20123;-20
2023/12/04 06:06:21;;;;;;;2.60;1.17;;;5.00;99.90;;;;;;5012678;28;20045;-20
2023/12/04 06:08:46;;;;;;;3.15;1.25;;;5.10;99.90;;;;;;5023893;28;20033;-20
2023/12/04 06:11:13;;;;;;;2.73;1.43;;;5.10;99.90;;;;;;4980021;28;20047;-20
2023/12/04 06:13:38;;;;;;;4.50;1.67;;;5.10;99.90;;;;;;4989237;28;20044;-20
2023/12/04 06:16:05;;;;;;;2.85;1.48;;;5.10;99.90;;;;;;5025177;28;20037;-21
2023/12/04 06:18:30;;;;;;;2.80;1.40;;;5.10;99.90;;;;;;4998265;28;20134;-21
2023/12/04 06:20:56;;;;;;;3.70;1.50;;;5.10;99.90;;;;;;4981600;28;20100;-21
2023/12/04 06:23:22;;;;;;;3.33;1.50;;;5.10;99.90;;;;;;5001360;28;20033;-19
2023/12/04 06:25:48;;;;;;;3.17;1.57;;;5.10;99.90;;;;;;4985390;28;20533;-21
2023/12/04 06:28:14;;;;;;;2.80;1.52;;;5.10;99.90;;;;;;5014213;28;20222;-20
2023/12/04 06:30:40;;;;;;;2.85;1.40;;;5.10;99.90;;;;;;5024409;28;20029;-19
2023/12/04 06:33:07;;;;;;;2.83;1.40;;;5.10;99.90;;;;;;4977617;28;22636;-19
2023/12/04 06:35:33;;;;;;;3.55;1.40;;;5.10;99.90;;;;;;5016887;28;20041;-22
2023/12/04 06:38:05;;;;;;;2.65;1.38;;;5.10;99.90;;;;;;5007579;28;20025;-22
2023/12/04 06:40:32;;;;;;;3.38;1.42;;;5.00;99.90;;;;;;5006738;28;20025;-22
2023/12/04 06:42:58;;;;;;;3.50;1.80;;;7.10;99.90;;;;;;5002762;28;20025;-22
2023/12/04 06:45:24;;;;;;;3.20;1.80;;;5.10;99.90;;;;;;5021214;28;20124;-22
2023/12/04 06:47:51;;;;;;;2.67;1.40;;;5.10;99.90;;;;;;5020275;28;20060;-22
2023/12/04 06:50:17;;;;;;;2.72;1.45;;;5.10;99.90;;;;;;5006107;28;20688;-22
2023/12/04 06:52:43;;;;;;;4.33;1.80;;;5.10;99.90;;;;;;5007648;28;20045;-22
2023/12/04 06:55:09;;;;;;;3.88;1.88;;;5.20;99.90;;;;;;5000779;28;25895;-22
2023/12/04 06:57:37;;;;;;;3.90;1.75;;;5.20;99.90;;;;;;5007776;28;20510;-22
2023/12/04 07:00:03;;;;;;;3.92;1.98;;;5.20;99.90;;;;;;5010506;28;20029;-22
2023/12/04 07:02:29;;;;;;;3.20;1.70;;;5.20;99.90;;;;;;5022770;28;20466;-23
2023/12/04 07:04:55;;;;;;;4.90;2.17;;;5.20;99.90;;;;;;5006992;28;20039;-22
2023/12/04 07:07:21;;;;;;;3.38;1.58;;;5.20;99.90;;;;;;5018294;28;20037;-22
2023/12/04 07:09:47;;;;;;;2.57;1.40;;;5.20;99.90;;;;;;5008521;28;20055;-22
2023/12/04 07:12:13;;;;;;;3.80;1.70;;;5.20;99.90;;;;;;5003847;28;20059;-22
2023/12/04 07:14:39;;;;;;;3.00;1.70;;;5.20;99.90;;;;;;5016714;28;20029;-22
2023/12/04 07:17:05;;;;;;;3.67;1.80;;;5.40;99.90;;;;;;5018453;28;20088;-20
2023/12/04 07:19:30;;;;;;;3.53;1.80;;;5.30;99.90;;;;;;4989762;28;20053;-20
2023/12/04 07:21:56;;;;;;;4.13;1.83;;;5.30;99.90;;;;;;5005272;28;20056;-21
2023/12/04 07:24:22;;;;;;;3.08;1.90;;;5.30;99.90;;;;;;5010166;28;20052;-20
2023/12/04 07:26:48;;;;;;;4.33;1.97;;;5.30;99.90;;;;;;4989868;28;20037;-21
2023/12/04 07:29:13;;;;;;;3.60;1.80;;;4.00;99.90;;;;;;4997263;28;20049;-19
2023/12/04 07:31:41;;;;;;;4.20;2.20;;;5.40;99.90;;;;;;4979824;28;20398;-19
2023/12/04 07:34:07;;;;;;;3.95;1.67;;;5.40;99.90;;;;;;5016235;28;20124;-20
2023/12/04 07:36:32;;;;;;;2.65;1.42;;;5.40;99.90;;;;;;4993988;28;20025;-20
2023/12/04 07:38:58;;;;;;;2.83;1.57;;;5.40;99.90;;;;;;4996818;28;20099;-21
2023/12/04 07:41:24;;;;;;;3.10;1.50;;;5.30;99.90;;;;;;4993955;28;20032;-20
2023/12/04 07:43:51;;;;;;;3.25;1.58;;;5.40;99.90;;;;;;5024737;28;20104;-20
2023/12/04 07:46:16;;;;;;;3.73;1.67;;;5.40;99.90;;;;;;4998174;28;20088;-20
2023/12/04 07:48:43;;;;;;;3.80;1.95;;;5.40;99.90;;;;;;5013038;28;20603;-20
2023/12/04 07:51:10;;;;;;;3.75;1.77;;;5.40;99.90;;;;;;5009759;28;20029;-20
2023/12/04 07:53:35;;;;;;;4.90;1.67;;;5.40;99.90;;;;;;4994387;28;20056;-20
2023/12/04 07:56:04;;;;;;;2.83;1.53;;;5.40;99.90;;;;;;5010501;28;20061;-21
2023/12/04 07:58:34;;;;;;;2.90;1.60;;;5.40;99.90;;;;;;5002825;28;20021;-20
2023/12/04 08:01:00;;;;;;;2.90;1.60;;;5.40;99.90;;;;;;5018072;28;20556;-21
2023/12/04 08:03:25;;;;;;;3.90;1.83;;;5.40;99.90;;;;;;5020845;28;20036;-20
2023/12/04 08:05:52;;;;;;;4.07;1.70;;;5.40;99.90;;;;;;5028460;28;20037;-21
2023/12/04 08:08:17;;;;;;;3.58;1.65;;;5.50;99.90;;;;;;4997988;28;20029;-20
2023/12/04 08:10:43;;;;;;;2.90;1.40;;;5.50;99.90;;;;;;5030290;28;20029;-20
2023/12/04 08:13:09;;;;;;;3.70;1.85;;;5.40;99.90;;;;;;4993532;28;20546;-20
2023/12/04 08:15:34;;;;;;;4.03;1.97;;;4.20;99.90;;;;;;5017628;28;20029;-20
2023/12/04 08:18:00;;;;;;;4.05;1.90;;;5.50;99.90;;;;;;5018157;28;20033;-21
2023/12/04 08:20:26;;;;;;;3.40;1.70;;;5.40;99.90;;;;;;5032333;28;20025;-20
2023/12/04 08:22:52;;;;;;;4.07;2.10;;;5.50;99.90;;;;;;5026162;28;20463;-21
2023/12/04 08:25:21;;;;;;;4.10;2.00;;;5.50;99.90;;;;;;4999311;28;20033;-20
2023/12/04 08:27:47;;;;;;;3.65;1.67;;;5.50;99.90;;;;;;5014340;28;20216;-21
2023/12/04 08:30:14;;;;;;;2.88;1.73;;;5.60;99.90;;;;;;5002455;28;20151;-20
2023/12/04 08:32:39;;;;;;;3.63;1.85;;;5.60;99.90;;;;;;4999348;28;20060;-20
2023/12/04 08:35:06;;;;;;;3.90;1.93;;;5.60;99.90;;;;;;5014324;28;20665;-20
2023/12/04 08:37:32;;;;;;;3.35;1.85;;;5.60;99.90;;;;;;5023797;28;20039;-21
2023/12/04 08:39:57;;;;;;;3.78;2.00;;;5.60;99.90;;;;;;4998538;28;20500;-21
2023/12/04 08:42:23;;;;;;;3.30;1.80;;;5.60;99.90;;;;;;5015865;28;20208;-20
2023/12/04 08:44:49;;;;;;;3.60;1.90;;;5.70;99.90;;;;;;5005240;28;20044;-20
2023/12/04 08:47:14;;;;;;;3.67;2.13;;;5.70;99.90;;;;;;4997144;28;20183;-20
2023/12/04 08:49:41;;;;;;;3.67;2.03;;;5.70;99.90;;;;;;5005838;28;20080;-20
2023/12/04 08:52:07;;;;;;;3.85;2.05;;;5.70;99.90;;;;;;5014033;28;20569;-20
2023/12/04 08:54:33;;;;;;;3.77;1.90;;;5.70;99.90;;;;;;4994905;28;20030;-20
2023/12/04 08:56:59;;;;;;;3.75;1.60;;;5.70;99.90;;;;;;5015591;28;20454;-21
2023/12/04 08:59:25;;;;;;;3.65;1.83;;;5.80;99.90;;;;;;5006091;28;20026;-19
2023/12/04 09:01:51;;;;;;;3.45;1.80;;;5.80;99.90;;;;;;5025562;28;20745;-21
2023/12/04 09:04:17;;;;;;;3.70;1.87;;;5.80;99.90;;;;;;5006747;28;20033;-19
2023/12/04 09:06:43;;;;;;;2.80;1.60;;;5.80;99.90;;;;;;5011148;28;20028;-20
2023/12/04 09:09:08;;;;;;;3.80;1.83;;;5.80;99.90;;;;;;4987473;28;20226;-20
2023/12/04 09:11:34;;;;;;;3.90;2.20;;;5.80;99.90;;;;;;5027085;28;20125;-20
2023/12/04 09:14:00;;;;;;;4.10;2.10;;;5.80;99.90;;;;;;4975162;28;20032;-21
2023/12/04 09:16:26;;;;;;;4.68;1.90;;;5.80;99.90;;;;;;4993877;28;20056;-20
2023/12/04 09:18:53;;;;;;;4.22;2.00;;;5.80;99.90;;;;;;5028529;28;20456;-21
2023/12/04 09:21:19;;;;;;;4.10;1.80;;;5.90;99.90;;;;;;4997953;28;20398;-20
2023/12/04 09:23:49;;;;;;;4.28;1.90;;;5.90;99.90;;;;;;5018960;28;20091;-20
2023/12/04 09:26:16;;;;;;;3.65;1.83;;;5.90;99.90;;;;;;5007383;28;20371;-20
2023/12/04 09:28:41;;;;;;;3.95;1.90;;;5.90;99.90;;;;;;5001569;28;20486;-20
2023/12/04 09:31:08;;;;;;;4.27;2.20;;;5.90;99.90;;;;;;5003697;28;20229;-20
2023/12/04 09:33:35;;;;;;;3.95;2.17;;;5.90;99.90;;;;;;5027007;28;20025;-20
2023/12/04 09:36:02;;;;;;;5.03;2.05;;;5.90;99.90;;;;;;5009262;28;20688;-22
2023/12/04 09:38:29;;;;;;;4.80;2.07;;;5.90;99.90;;;;;;5015295;28;20071;-22
2023/12/04 09:41:03;;;;;;;4.65;2.00;;;5.90;99.90;;;;;;5009547;28;20104;-22
2023/12/04 09:43:32;;;;;;;3.67;1.80;;;5.90;99.90;;;;;;4985902;28;20025;-22
2023/12/04 09:45:59;;;;;;;4.13;1.90;;;5.90;99.90;;;;;;5001529;28;20026;-22
2023/12/04 09:48:26;;;;;;;4.00;2.05;;;6.00;99.90;;;;;;5025893;28;20036;-22
2023/12/04 09:50:53;;;;;;;3.70;1.77;;;5.80;99.90;;;;;;4991283;28;20037;-22
2023/12/04 09:53:21;;;;;;;4.72;1.92;;;5.80;99.90;;;;;;5018412;28;20265;-22
2023/12/04 09:55:50;;;;;;;3.25;1.80;;;5.80;99.90;;;;;;5026141;28;20033;-22
2023/12/04 09:58:20;;;;;;;3.67;1.98;;;5.80;99.90;;;;;;5027101;28;20661;-22
2023/12/04 10:00:47;;;;;;;3.55;2.03;;;5.80;99.90;;;;;;5002832;28;20025;-21
2023/12/04 10:03:13;;;;;;;3.73;1.87;;;5.80;99.90;;;;;;5024116;28;20310;-22
2023/12/04 10:05:45;;;;;;;4.40;2.10;;;5.80;99.90;;;;;;5029227;28;20025;-18
2023/12/04 10:08:12;;;;;;;4.28;2.03;;;5.70;99.90;;;;;;4975995;28;20065;-18
2023/12/04 10:10:39;;;;;;;3.90;1.97;;;4.00;99.90;;;;;;5029960;28;20539;-17
2023/12/04 10:13:06;;;;;;;4.57;2.20;;;5.70;99.90;;;;;;4990677;28;20087;-17
2023/12/04 10:15:32;;;;;;;4.10;2.15;;;5.70;99.90;;;;;;5004232;28;20134;-18
2023/12/04 10:17:58;;;;;;;5.15;2.28;;;5.70;99.90;;;;;;5026184;28;20386;-18
2023/12/04 10:20:24;;;;;;;5.07;2.40;;;5.60;99.90;;;;;;5027452;28;20014;-17
2023/12/04 10:22:58;;;;;;;3.42;2.10;;;5.60;99.90;;;;;;5003126;28;20063;-18
2023/12/04 10:25:33;;;;;;;3.95;2.30;;;5.70;99.90;;;;;;5018852;28;20132;-16
2023/12/04 10:28:10;;;;;;;4.90;2.50;;;5.60;99.90;;;;;;5009816;28;20059;-18
2023/12/04 10:30:37;;;;;;;4.30;2.10;;;5.60;99.90;;;;;;5000868;28;20039;-17
2023/12/04 10:33:05;;;;;;;4.47;2.20;;;5.70;99.90;;;;;;5023488;28;20670;-18
2023/12/04 10:35:38;;;;;;;5.05;2.45;;;5.70;99.90;;;;;;5014406;28;20255;-16
2023/12/04 10:38:08;;;;;;;4.57;2.30;;;5.80;99.90;;;;;;4998869;28;20041;-17
2023/12/04 10:40:36;;;;;;;5.23;2.60;;;5.80;99.90;;;;;;5012427;28;20266;-17
2023/12/04 10:43:23;;;;;;;3.75;1.92;;;5.70;99.90;;;;;;5024882;28;20036;-18
2023/12/04 10:45:51;;;;;;;4.22;2.10;;;5.70;99.90;;;;;;5024705;28;20026;-20
2023/12/04 10:48:18;;;;;;;4.85;2.30;;;5.70;99.90;;;;;;4994402;28;20228;-16
2023/12/04 10:50:46;;;;;;;4.72;2.30;;;5.80;99.90;;;;;;5010011;28;20033;-17
2023/12/04 10:53:14;;;;;;;5.07;2.40;;;5.80;99.90;;;;;;5004991;28;22480;-17
2023/12/04 10:55:41;;;;;;;3.80;1.85;;;5.80;99.90;;;;;;5016393;28;20105;-17
2023/12/04 10:58:09;;;;;;;5.50;2.55;;;5.80;99.90;;;;;;5022798;28;20398;-17
2023/12/04 11:00:37;;;;;;;5.03;2.35;;;5.80;99.90;;;;;;5025938;28;20608;-17
2023/12/04 11:03:28;;;;;;;5.28;2.58;;;5.90;99.90;;;;;;4995584;28;20021;-18
2023/12/04 11:06:00;;;;;;;4.77;2.40;;;5.90;99.90;;;;;;5027480;28;20533;-18
2023/12/04 11:08:32;;;;;;;5.22;2.78;;;6.00;99.90;;;;;;5012647;28;20028;-17
2023/12/04 11:11:19;;;;;;;5.93;2.63;;;6.00;99.90;;;;;;4987230;28;20447;-18
2023/12/04 11:13:52;;;;;;;8.23;3.80;;;6.00;99.90;;;;;;5007372;28;20498;-18
2023/12/04 11:16:40;;;;;;;8.02;3.83;;;6.10;99.90;;;;;;5023837;28;20029;-20
2023/12/04 11:19:24;;;;;;;6.27;3.20;;;6.10;99.90;;;;;;4998588;28;20269;-20
2023/12/04 11:21:51;;;;;;;7.70;3.55;;;6.10;99.90;;;;;;5025493;28;20060;-20
2023/12/04 11:24:18;;;;;;;6.45;3.35;;;6.10;99.90;;;;;;5014670;28;20413;-20
2023/12/04 11:26:45;;;;;;;5.35;2.50;;;6.20;99.90;;;;;;4980937;28;20644;-21
2023/12/04 11:29:13;;;;;;;6.22;2.70;;;6.10;99.90;;;;;;5022552;28;20329;-20
2023/12/04 11:31:39;;;;;;;4.53;2.13;;;6.10;99.90;;;;;;5011260;28;20674;-20
2023/12/04 11:34:07;;;;;;;5.22;2.53;;;6.10;99.90;;;;;;4983422;28;20033;-20
2023/12/04 11:36:34;;;;;;;5.97;2.95;;;6.10;99.90;;;;;;5031155;28;20025;-20
2023/12/04 11:39:00;;;;;;;5.65;2.72;;;6.10;99.90;;;;;;5018966;28;20071;-19
2023/12/04 11:41:26;;;;;;;5.63;2.60;;;6.10;99.90;;;;;;5001825;28;20029;-20
2023/12/04 11:43:54;;;;;;;5.13;2.60;;;6.10;99.90;;;;;;5027926;28;20029;-20
2023/12/04 11:46:25;;;;;;;5.55;2.67;;;6.10;99.90;;;;;;5028638;28;20660;-20
2023/12/04 11:48:55;;;;;;;8.00;3.67;;;6.10;99.90;;;;;;5022493;28;20029;-19
2023/12/04 11:51:39;;;;;;;9.07;4.10;;;6.10;99.90;;;;;;5016292;28;20116;-20
2023/12/04 11:54:08;;;;;;;6.75;3.13;;;6.10;99.90;;;;;;5016997;28;20353;-20
2023/12/04 11:56:34;;;;;;;7.00;3.35;;;6.10;99.90;;;;;;5014135;28;20588;-20
2023/12/04 11:59:08;;;;;;;7.28;3.60;;;6.10;99.90;;;;;;5001064;28;20037;-19
2023/12/04 12:01:37;;;;;;;6.80;3.20;;;6.10;99.90;;;;;;5003513;28;20115;-20
2023/12/04 12:04:06;;;;;;;5.38;2.75;;;6.20;99.90;;;;;;5002978;28;20378;-19
2023/12/04 12:06:32;;;;;;;5.82;3.05;;;6.10;99.90;;;;;;5029778;28;20086;-20
2023/12/04 12:08:58;;;;;;;6.20;3.27;;;6.20;99.90;;;;;;5027127;28;20581;-20
2023/12/04 12:11:26;;;;;;;7.97;3.58;;;6.10;99.90;;;;;;5020099;28;20106;-20
2023/12/04 12:13:53;;;;;;;9.18;4.38;;;6.10;99.90;;;;;;5006715;28;20076;-20
2023/12/04 12:16:19;;;;;;;7.90;3.97;;;6.10;99.90;;;;;;4965085;28;20325;-20
2023/12/04 12:18:44;;;;;;;7.20;3.23;;;6.10;99.90;;;;;;5029157;28;20202;-20
2023/12/04 12:21:11;;;;;;;6.53;3.00;;;6.10;99.90;;;;;;4989717;28;20052;-20
2023/12/04 12:23:36;;;;;;;5.60;2.78;;;6.10;99.90;;;;;;5001646;28;20615;-20
2023/12/04 12:26:02;;;;;;;5.27;2.67;;;6.10;99.90;;;;;;5001555;28;20040;-20
2023/12/04 12:28:29;;;;;;;5.78;2.80;;;6.10;99.90;;;;;;5012791;28;20036;-20
2023/12/04 12:30:55;;;;;;;3.75;2.08;;;6.10;99.90;;;;;;5014555;28;20099;-20
2023/12/04 12:33:23;;;;;;;5.87;2.90;;;6.10;99.90;;;;;;5009286;28;20114;-20
2023/12/04 12:35:49;;;;;;;6.38;2.88;;;6.10;99.90;;;;;;4996227;28;21364;-20
2023/12/04 12:38:15;;;;;;;5.07;2.53;;;6.10;99.90;;;;;;5012539;28;20570;-20
2023/12/04 12:40:42;;;;;;;4.85;2.70;;;6.20;99.90;;;;;;5027574;28;20281;-20
2023/12/04 12:43:09;;;;;;;5.53;2.58;;;6.20;99.90;;;;;;5005679;28;20033;-20
2023/12/04 12:45:47;;;;;;;5.17;2.63;;;6.20;99.90;;;;;;5025521;28;20139;-20
2023/12/04 12:48:14;;;;;;;5.75;2.75;;;6.20;99.90;;;;;;5016415;28;20049;-20
2023/12/04 12:50:43;;;;;;;4.80;2.42;;;6.20;99.90;;;;;;4995661;28;20822;-20
2023/12/04 12:53:11;;;;;;;4.60;2.25;;;6.20;99.90;;;;;;5011533;28;20045;-20
2023/12/04 12:55:44;;;;;;;4.88;2.38;;;6.20;99.90;;;;;;5022390;28;20252;-20